createdAt,value
2019-01-25T00:00:11.286Z,-3.86
2019-01-25T00:05:15.430Z,-3.92
2019-01-25T00:10:19.804Z,-3.98
2019-01-25T00:15:24.195Z,-3.95
2019-01-25T00:20:28.297Z,-4.03
2019-01-25T00:25:33.337Z,-3.99
2019-01-25T00:30:37.457Z,-3.95
2019-01-25T00:35:41.909Z,-3.96
2019-01-25T00:40:46.010Z,-4.02
2019-01-25T00:45:50.149Z,-4.08
2019-01-25T00:50:54.530Z,-4.18
2019-01-25T00:55:58.663Z,-4.17
2019-01-25T01:01:03.350Z,-4.14
2019-01-25T01:06:07.655Z,-4.15
2019-01-25T01:11:11.712Z,-4.18
2019-01-25T01:16:16.087Z,-4.22
2019-01-25T01:21:20.301Z,-4.25
2019-01-25T01:26:24.440Z,-4.27
2019-01-25T01:31:28.504Z,-4.19
2019-01-25T01:36:32.618Z,-4.15
2019-01-25T01:41:36.783Z,-4.22
2019-01-25T01:46:40.844Z,-4.23
2019-01-25T01:51:44.869Z,-4.25
2019-01-25T01:56:48.956Z,-4.28
2019-01-25T02:01:53.429Z,-4.21
2019-01-25T02:06:57.491Z,-4.28
2019-01-25T02:12:01.572Z,-4.30
2019-01-25T02:17:05.698Z,-4.23
2019-01-25T02:22:09.830Z,-4.20
2019-01-25T02:27:13.982Z,-4.24
2019-01-25T02:32:18.052Z,-4.18
2019-01-25T02:37:22.086Z,-4.16
2019-01-25T02:42:26.389Z,-4.24
2019-01-25T02:47:30.541Z,-4.29
2019-01-25T02:52:34.643Z,-4.33
2019-01-25T02:57:39.182Z,-4.35
2019-01-25T03:02:43.939Z,-4.26
2019-01-25T03:07:48.189Z,-4.28
2019-01-25T03:12:52.550Z,-4.36
2019-01-25T03:17:56.998Z,-4.32
2019-01-25T03:23:01.010Z,-4.34
2019-01-25T03:28:05.199Z,-4.36
2019-01-25T03:33:09.290Z,-4.36
2019-01-25T03:38:13.884Z,-4.32
2019-01-25T03:43:18.002Z,-4.24
2019-01-25T03:48:22.049Z,-4.26
2019-01-25T03:53:26.269Z,-4.24
2019-01-25T03:58:30.384Z,-4.24
2019-01-25T04:03:34.493Z,-4.27
2019-01-25T04:08:38.505Z,-4.23
2019-01-25T04:13:42.527Z,-4.25
2019-01-25T04:18:46.992Z,-4.18
2019-01-25T04:23:51.239Z,-4.25
2019-01-25T04:28:56.233Z,-4.30
2019-01-25T04:34:00.595Z,-4.35
2019-01-25T04:39:08.367Z,-4.40
2019-01-25T04:44:12.490Z,-4.35
2019-01-25T04:49:16.536Z,-4.21
2019-01-25T04:54:20.585Z,-4.34
2019-01-25T04:59:28.873Z,-4.33
2019-01-25T05:04:36.268Z,-4.46
2019-01-25T05:09:40.432Z,-4.64
2019-01-25T05:14:44.526Z,-4.90
2019-01-25T05:19:48.590Z,-5.11
2019-01-25T05:24:53.006Z,-5.06
2019-01-25T05:29:57.321Z,-5.00
2019-01-25T05:35:01.388Z,-4.93
2019-01-25T05:40:06.548Z,-4.90
2019-01-25T05:45:11.706Z,-4.82
2019-01-25T05:50:16.206Z,-4.85
2019-01-25T05:55:27.247Z,-4.87
2019-01-25T06:00:32.011Z,-4.81
2019-01-25T06:05:36.179Z,-4.77
2019-01-25T06:10:40.233Z,-4.82
2019-01-25T06:15:44.328Z,-4.72
2019-01-25T06:20:53.577Z,-4.63
2019-01-25T06:25:58.582Z,-4.65
2019-01-25T06:31:18.479Z,-4.76
2019-01-25T06:36:22.760Z,-4.75
2019-01-25T06:41:26.840Z,-4.64
2019-01-25T06:46:30.918Z,-4.70
2019-01-25T06:51:34.954Z,-4.69
2019-01-25T06:56:38.922Z,-4.67
2019-01-25T07:01:43.275Z,-4.73
2019-01-25T07:06:47.609Z,-4.74
2019-01-25T07:11:52.070Z,-4.83
2019-01-25T07:16:56.121Z,-4.99
2019-01-25T07:22:00.586Z,-5.09
2019-01-25T07:27:05.267Z,-5.11
2019-01-25T07:32:09.787Z,-4.95
2019-01-25T07:37:13.779Z,-4.94
2019-01-25T07:42:17.983Z,-4.94
2019-01-25T07:47:22.260Z,-4.94
2019-01-25T07:52:26.338Z,-4.97
2019-01-25T07:57:30.394Z,-5.05
2019-01-25T08:02:34.423Z,-5.10
2019-01-25T08:07:38.692Z,-4.95
2019-01-25T08:12:42.740Z,-4.83
2019-01-25T08:17:46.791Z,-4.75
2019-01-25T08:22:50.943Z,-4.68
2019-01-25T08:27:54.925Z,-4.55
2019-01-25T08:32:58.959Z,-4.49
2019-01-25T08:38:03.111Z,-4.41
2019-01-25T08:43:08.979Z,-4.31
2019-01-25T08:48:13.067Z,-4.13
2019-01-25T08:53:17.169Z,-4.12
2019-01-25T08:58:21.200Z,-4.07
2019-01-25T09:03:25.194Z,-3.94
2019-01-25T09:08:29.213Z,-3.79
2019-01-25T09:13:33.248Z,-3.62
2019-01-25T09:18:37.345Z,-3.39
2019-01-25T09:23:41.485Z,-3.29
2019-01-25T09:28:48.636Z,-3.27
2019-01-25T09:33:53.029Z,-3.03
2019-01-25T09:38:57.079Z,-2.90
2019-01-25T09:44:01.142Z,-2.76
2019-01-25T09:49:05.563Z,-2.53
2019-01-25T09:54:09.616Z,-2.49
2019-01-25T09:59:13.712Z,-2.18
2019-01-25T10:04:18.064Z,-2.20
2019-01-25T10:09:22.239Z,-2.18
2019-01-25T10:14:26.303Z,-1.85
2019-01-25T10:19:30.413Z,-1.60
2019-01-25T10:24:34.441Z,-0.88
2019-01-25T10:29:38.491Z,0.08
2019-01-25T10:34:42.521Z,0.91
2019-01-25T10:39:46.543Z,1.30
2019-01-25T10:44:50.600Z,1.84
2019-01-25T10:49:54.646Z,0.57
2019-01-25T10:54:58.677Z,-0.50
2019-01-25T11:00:03.738Z,-0.94
2019-01-25T11:05:09.956Z,-1.09
2019-01-25T11:10:14.103Z,-1.32
2019-01-25T11:15:20.825Z,-1.22
2019-01-25T11:20:24.985Z,-1.61
2019-01-25T11:25:31.661Z,-1.57
2019-01-25T11:30:36.088Z,-1.51
2019-01-25T11:35:40.119Z,-1.59
2019-01-25T11:40:44.979Z,-1.45
2019-01-25T11:45:49.119Z,-1.54
2019-01-25T11:50:53.097Z,-1.50
2019-01-25T11:55:57.106Z,-1.52
2019-01-25T12:01:01.179Z,-1.54
2019-01-25T12:06:05.287Z,-1.71
2019-01-25T12:11:09.631Z,-1.92
2019-01-25T12:16:13.689Z,-1.99
2019-01-25T12:21:17.728Z,-1.86
2019-01-25T12:26:21.865Z,-2.21
2019-01-25T12:31:25.850Z,-2.15
2019-01-25T12:36:29.904Z,-2.17
2019-01-25T12:41:33.973Z,-1.98
2019-01-25T12:46:38.597Z,-1.67
2019-01-25T12:51:54.526Z,-1.16
2019-01-25T12:56:58.607Z,-1.10
2019-01-25T13:02:03.358Z,-1.23
2019-01-25T13:07:07.690Z,-1.29
2019-01-25T13:12:11.758Z,-1.19
2019-01-25T13:17:15.803Z,-1.27
2019-01-25T13:22:19.830Z,-1.46
2019-01-25T13:27:23.852Z,-1.73
2019-01-25T13:32:27.971Z,-1.66
2019-01-25T13:37:33.216Z,-2.00
2019-01-25T13:42:37.349Z,-2.06
2019-01-25T13:47:41.484Z,-1.91
2019-01-25T13:52:45.698Z,-1.86
2019-01-25T13:57:50.062Z,-2.00
2019-01-25T14:02:56.324Z,-2.01
2019-01-25T14:08:00.514Z,-2.21
2019-01-25T14:13:05.122Z,-2.30
2019-01-25T14:18:09.441Z,-2.17
2019-01-25T14:23:13.434Z,-2.08
2019-01-25T14:28:17.572Z,-1.81
2019-01-25T14:33:21.573Z,-2.04
2019-01-25T14:38:25.797Z,-2.13
2019-01-25T14:43:29.980Z,-2.33
2019-01-25T14:48:38.087Z,-2.52
2019-01-25T14:53:39.846Z,-2.77
2019-01-25T14:58:43.903Z,-2.90
2019-01-25T15:03:48.248Z,-3.03
2019-01-25T15:08:52.498Z,-3.09
2019-01-25T15:14:02.460Z,-3.01
2019-01-25T15:19:04.094Z,-3.04
2019-01-25T15:24:08.172Z,-2.97
2019-01-25T15:29:12.328Z,-2.94
2019-01-25T15:34:16.452Z,-3.00
2019-01-25T15:39:20.633Z,-3.02
2019-01-25T15:44:24.867Z,-2.99
2019-01-25T15:49:30.356Z,-3.10
2019-01-25T15:54:34.406Z,-3.08
2019-01-25T15:59:38.526Z,-3.16
2019-01-25T16:04:42.553Z,-3.06
2019-01-25T16:09:47.218Z,-3.08
2019-01-25T16:14:51.812Z,-3.15
2019-01-25T16:19:55.824Z,-3.22
2019-01-25T16:24:59.868Z,-3.17
2019-01-25T16:30:07.075Z,-3.17
2019-01-25T16:35:11.513Z,-3.12
2019-01-25T16:40:16.852Z,-3.21
2019-01-25T16:45:23.594Z,-3.17
2019-01-25T16:50:27.684Z,-3.19
2019-01-25T16:55:32.045Z,-3.14
2019-01-25T17:00:41.146Z,-3.12
2019-01-25T17:05:45.282Z,-3.05
2019-01-25T17:10:49.353Z,-3.12
2019-01-25T17:15:55.224Z,-3.17
2019-01-25T17:20:59.126Z,-3.14
2019-01-25T17:26:04.271Z,-3.10
2019-01-25T17:31:08.592Z,-3.15
2019-01-25T17:36:13.272Z,-3.13
2019-01-25T17:41:17.836Z,-3.14
2019-01-25T17:46:22.249Z,-3.16
2019-01-25T17:51:27.282Z,-3.12
2019-01-25T17:56:31.430Z,-3.17
2019-01-25T18:01:35.479Z,-3.20
2019-01-25T18:06:39.594Z,-3.22
2019-01-25T18:11:43.604Z,-3.18
2019-01-25T18:16:47.945Z,-3.15
2019-01-25T18:21:51.994Z,-3.10
2019-01-25T18:26:56.599Z,-3.06
2019-01-25T18:32:00.656Z,-3.03
2019-01-25T18:37:04.806Z,-3.04
2019-01-25T18:42:08.901Z,-3.06
2019-01-25T18:47:12.937Z,-3.00
2019-01-25T18:52:17.010Z,-2.96
2019-01-25T18:57:22.635Z,-3.03
2019-01-25T19:02:26.772Z,-2.97
2019-01-25T19:07:30.910Z,-2.66
2019-01-25T19:12:34.997Z,-2.67
2019-01-25T19:17:39.032Z,-2.60
2019-01-25T19:22:43.068Z,-2.66
2019-01-25T19:27:47.356Z,-2.74
2019-01-25T19:32:51.985Z,-2.73
2019-01-25T19:37:56.855Z,-2.87
2019-01-25T19:43:01.966Z,-2.75
2019-01-25T19:48:06.288Z,-2.71
2019-01-25T19:53:10.779Z,-2.91
2019-01-25T19:58:16.768Z,-2.97
2019-01-25T20:03:24.577Z,-2.96
2019-01-25T20:08:29.294Z,-2.99
2019-01-25T20:13:34.165Z,-3.06
2019-01-25T20:18:40.108Z,-3.10
2019-01-25T20:23:44.584Z,-3.16
2019-01-25T20:28:54.587Z,-3.09
2019-01-25T20:33:58.986Z,-3.03
2019-01-25T20:39:09.765Z,-3.16
2019-01-25T20:44:13.934Z,-3.23
2019-01-25T20:49:18.238Z,-3.24
2019-01-25T20:54:22.528Z,-3.22
2019-01-25T20:59:28.530Z,-3.22
2019-01-25T21:04:36.568Z,-3.19
2019-01-25T21:09:46.110Z,-3.21
2019-01-25T21:14:52.691Z,-3.23
2019-01-25T21:19:59.502Z,-3.20
2019-01-25T21:25:06.409Z,-3.16
2019-01-25T21:30:17.342Z,-3.17
2019-01-25T21:35:21.735Z,-3.06
2019-01-25T21:40:28.456Z,-3.08
2019-01-25T21:45:42.883Z,-3.07
2019-01-25T21:50:43.840Z,-3.03
2019-01-25T21:55:47.889Z,-3.09
2019-01-25T22:00:51.932Z,-3.03
2019-01-25T22:05:55.968Z,-2.93
2019-01-25T22:11:00.191Z,-2.90
2019-01-25T22:16:07.871Z,-2.90
2019-01-25T22:21:11.905Z,-2.89
2019-01-25T22:26:15.990Z,-2.91
2019-01-25T22:31:20.120Z,-2.90
2019-01-25T22:36:24.122Z,-2.80
2019-01-25T22:41:28.142Z,-2.81
2019-01-25T22:46:32.204Z,-2.65
2019-01-25T22:51:36.242Z,-2.75
2019-01-25T22:56:40.380Z,-2.63
2019-01-25T23:01:44.798Z,-2.78
2019-01-25T23:06:52.639Z,-2.77
2019-01-25T23:11:56.756Z,-2.72
2019-01-25T23:17:02.248Z,-2.65
2019-01-25T23:22:06.417Z,-2.69
2019-01-25T23:27:10.452Z,-2.83
2019-01-25T23:32:14.491Z,-2.87
2019-01-25T23:37:18.538Z,-2.92
2019-01-25T23:42:22.601Z,-2.84
2019-01-25T23:47:26.633Z,-2.80
2019-01-25T23:52:30.646Z,-2.77
2019-01-25T23:57:34.793Z,-2.76
